Brazoria County Airport Angleton, Lake Jackson US
ICAO: KLBX
IATA: LBX
Category: Medium
Scheduled Services: No

Elevation: 25 ft
TransAlt. 18000 ft.

Airport Communications:
HOUSTON APP/DEP:134.45
ASOS:119.925
CLNC DEL:125.2
CTAF/UNICOM:123

KLBX Zoom In..

Runways:

(A) RW 17 length 7000 ft width 100 ft
ILS 109.10 / hdg 175

(B) RW 35 length 7000 ft width 100 ft
---- / hdg 355

Location; KLBX
Day. 19 / Time. 19.53 Zulu
* Altimeter: 29.93
* Temperature: 33° c. 91.4°f.
* Wind from: 210° Speed 08 kn.
Dewpoint: 23° c.
Visibility: 10 Statute Miles.
Clouds: Clear (automated report).

KLBX 191953Z AUTO 21008KT 10SM CLR 33/23 A2993 RMK AO2 SLP135 T03330228 $


Wind From 210°
Speed 08 kn.

 
 
jpsmedia.com for Web Design worldairports.se 2018   terms of use